Lone Star Executive Airport
KCXO : now visible

Airfield :











YOU CAN JOIN US ON...

 
LOGIN :

Register | Disclaimer

   EN    FR    IT 

 









Legend :    VFR   Marginal VFR   IFR   Intensive IFR   Very Intensive IFR
Visi :
Ceiling :
>= 8 km
>= 3000ft
5 to 8 km
1000 to 3000 ft
1500m to 5 km
500 to 1000 ft
800 to 1500m
200 to 500 ft
< 800m
< 200 ft
Symbols :   Thunderstorms  Fog  Heavy snow  Heavy precipitations  Wind > 20 kt






- Airport Elevation : 245 ft


KCXO - Lone Star Executive

CURRENT METAR :
  • 171153Z 12003KT 1/4SM FG VV002 16/15 A2991 RMK AO2 SFC VIS 1/2 SLP127 T01560150 10167 20156 55003

EXPIRED METARs :
  • 171140Z AUTO 11003KT 1/2SM FG OVC002 16/15 A2991 RMK AO2 T01560150
  • 171127Z AUTO 14004KT 1 1/4SM BR OVC002 16/15 A2991 RMK AO2 T01610150
  • 171118Z AUTO 13003KT 2SM BR OVC003 16/15 A2991 RMK AO2 T01610150
  • 171053Z AUTO 15004KT 3SM BR OVC004 16/15 A2991 RMK AO2 SLP126 T01610150
  • 170953Z AUTO 14003KT 7SM OVC007 16/14 A2991 RMK AO2 SLP125 T01610144

TAF KCXO
Valid from the 17 at 12:00 until the 18 at 12:00 UTC


171127Z 1712/1812 VRB03KT 2SM BR OVC003
TEMPO 1712/1715 VRB04KT 1/4SM FG VV002
FM171600 VRB04KT 5SM BR OVC009
FM171800 19007KT P6SM BKN015
FM172200 19009KT P6SM SCT015 OVC035
FM180300 16008KT P6SM OVC015
FM181100 VRB04KT 4SM -DZ BR OVC004



MET'MAP, your aeronautical weather chart ! - Copyright ORBIFLY December 2007 - Disclaimer

ORBIFLY MET'MAP TEAM :

Programming & Development : Alexandra Zaïnal
Concept & original design : Baudouin d'Aumeries
Assistance for programming : Marc-Olivier Méhu
Technical & hardware support : Manuel Goepfert

Contact : metmap@orbifly.com




SOURCES & CREDITS :

   NOAA       Earth
Advisory